Time;durP1;ratioP1;P1;durP2;ratioP2;P2;SDS_P1;SDS_P2;PMS_P1;PMS_P2;Temp;Humidity;BMP_temperature;BMP_pressure;BME280_temperature;BME280_humidity;BME280_pressure;Samples;Min_cycle;Max_cycle;Signal;HPM_P1;HPM_P2
2021/03/15 00:00:16;;;;;;;14.03;4.03;;;5.70;98.30;;;;;;4152211;28;21010;-80
2021/03/15 00:02:19;;;;;;;19.30;5.60;;;5.70;98.30;;;;;;4152722;28;20489;-80
2021/03/15 00:04:21;;;;;;;9.30;4.27;;;5.70;98.30;;;;;;4161461;28;20902;-80
2021/03/15 00:06:23;;;;;;;15.50;4.53;;;5.70;98.30;;;;;;4154408;28;20492;-80
2021/03/15 00:08:25;;;;;;;12.73;4.97;;;5.70;98.30;;;;;;4158282;28;20497;-80
2021/03/15 00:10:27;;;;;;;14.53;3.67;;;5.60;98.30;;;;;;4154450;28;21377;-80
2021/03/15 00:12:29;;;;;;;13.77;4.20;;;5.70;98.30;;;;;;4150229;28;20584;-80
2021/03/15 00:14:31;;;;;;;12.77;3.93;;;5.60;98.30;;;;;;4153302;28;20575;-80
2021/03/15 00:16:33;;;;;;;15.57;4.07;;;5.60;98.30;;;;;;4158494;28;20499;-80
2021/03/15 00:18:36;;;;;;;8.67;3.90;;;5.40;98.30;;;;;;4150900;28;20491;-80
2021/03/15 00:20:39;;;;;;;11.57;3.90;;;5.30;98.30;;;;;;4153896;28;20488;-80
2021/03/15 00:22:41;;;;;;;6.13;2.73;;;5.30;98.30;;;;;;4159265;28;20515;-80
2021/03/15 00:24:44;;;;;;;7.73;2.87;;;5.10;98.30;;;;;;4160643;28;20511;-80
2021/03/15 00:26:46;;;;;;;10.20;3.27;;;5.10;98.30;;;;;;4158054;28;20523;-80
2021/03/15 00:28:47;;;;;;;11.47;3.70;;;5.10;98.30;;;;;;4148065;28;20499;-79
2021/03/15 00:30:49;;;;;;;6.03;2.80;;;5.10;98.30;;;;;;4150547;28;20511;-79
2021/03/15 00:32:53;;;;;;;7.80;4.37;;;5.10;98.30;;;;;;4148845;28;20493;-79
2021/03/15 00:34:56;;;;;;;7.63;3.65;;;5.10;98.30;;;;;;4152286;28;21003;-79
2021/03/15 00:36:58;;;;;;;8.13;3.40;;;5.10;98.30;;;;;;4147481;28;20228;-79
2021/03/15 00:39:00;;;;;;;19.70;4.27;;;5.10;98.30;;;;;;4147428;28;20937;-79
2021/03/15 00:41:02;;;;;;;8.93;3.73;;;5.10;98.30;;;;;;4147227;28;20465;-79
2021/03/15 00:43:04;;;;;;;8.90;4.67;;;5.10;98.30;;;;;;4147647;28;20497;-80
2021/03/15 00:45:07;;;;;;;11.60;3.67;;;5.10;98.30;;;;;;4152149;28;20487;-79
2021/03/15 00:47:09;;;;;;;7.93;4.03;;;5.20;98.30;;;;;;4148096;28;21150;-79
2021/03/15 00:49:12;;;;;;;11.10;3.90;;;5.20;98.30;;;;;;4147486;28;20493;-80
2021/03/15 00:51:15;;;;;;;11.03;4.93;;;5.10;98.30;;;;;;4147488;28;20538;-79
2021/03/15 00:53:16;;;;;;;18.87;6.00;;;5.10;98.30;;;;;;4146812;28;20494;-79
2021/03/15 00:55:19;;;;;;;11.87;3.83;;;5.10;98.30;;;;;;4150402;28;20583;-78
2021/03/15 00:57:21;;;;;;;11.70;4.23;;;5.10;98.30;;;;;;4147110;28;20518;-79
2021/03/15 00:59:23;;;;;;;10.13;3.70;;;5.10;98.30;;;;;;4147837;28;20583;-79
2021/03/15 01:01:25;;;;;;;9.07;3.93;;;5.10;98.30;;;;;;4148710;28;20237;-79
2021/03/15 01:03:27;;;;;;;15.03;4.33;;;5.10;98.30;;;;;;4169321;28;20488;-79
2021/03/15 01:05:34;;;;;;;11.47;4.03;;;5.10;98.30;;;;;;4154159;28;20491;-79
2021/03/15 01:07:37;;;;;;;9.25;4.00;;;5.10;98.30;;;;;;4154319;28;20489;-79
2021/03/15 01:09:39;;;;;;;6.60;4.90;;;5.10;98.30;;;;;;4154289;28;20313;-79
2021/03/15 01:11:42;;;;;;;10.27;3.80;;;5.10;98.30;;;;;;4149513;28;20494;-79
2021/03/15 01:13:44;;;;;;;11.30;4.60;;;5.10;98.30;;;;;;4152728;28;20520;-79
2021/03/15 01:15:46;;;;;;;8.17;3.67;;;5.10;98.30;;;;;;4158285;28;20496;-78
2021/03/15 01:17:48;;;;;;;14.40;3.70;;;5.10;98.30;;;;;;4147403;28;20481;-78
2021/03/15 01:19:50;;;;;;;7.30;3.70;;;5.10;98.30;;;;;;4153602;28;20498;-79
2021/03/15 01:21:52;;;;;;;12.53;3.43;;;5.10;98.30;;;;;;4146903;28;20485;-79
2021/03/15 01:23:55;;;;;;;16.83;4.77;;;5.10;98.30;;;;;;4146746;28;21203;-79
2021/03/15 01:25:57;;;;;;;8.70;3.93;;;5.10;98.30;;;;;;4153303;28;20520;-79
2021/03/15 01:28:00;;;;;;;16.60;4.30;;;5.10;98.30;;;;;;4152904;28;20489;-78
2021/03/15 01:30:02;;;;;;;9.40;4.10;;;5.10;98.30;;;;;;4146749;28;20569;-79
2021/03/15 01:32:05;;;;;;;13.57;4.50;;;5.10;98.30;;;;;;4150429;28;20591;-79
2021/03/15 01:34:07;;;;;;;11.03;4.07;;;5.10;98.30;;;;;;4146328;28;20582;-78
2021/03/15 01:36:09;;;;;;;9.10;3.33;;;5.10;98.30;;;;;;4146261;28;20559;-79
2021/03/15 01:38:11;;;;;;;8.67;3.60;;;5.10;98.30;;;;;;4151585;28;20229;-79
2021/03/15 01:40:15;;;;;;;10.97;4.30;;;5.10;98.30;;;;;;4146156;28;20552;-79
2021/03/15 01:42:17;;;;;;;7.67;3.60;;;5.10;98.30;;;;;;4145550;28;20578;-79
2021/03/15 01:44:19;;;;;;;11.30;4.00;;;5.10;98.30;;;;;;4151556;28;20490;-78
2021/03/15 01:46:21;;;;;;;8.00;3.67;;;5.10;98.30;;;;;;4149180;28;20573;-79
2021/03/15 01:48:23;;;;;;;11.57;4.77;;;5.10;98.30;;;;;;4147048;28;20898;-79
2021/03/15 01:50:25;;;;;;;7.83;4.00;;;5.10;98.30;;;;;;4147767;28;20470;-79
2021/03/15 01:52:27;;;;;;;10.87;3.83;;;5.10;98.30;;;;;;4155949;28;20498;-79
2021/03/15 01:54:30;;;;;;;9.87;3.80;;;5.10;98.30;;;;;;4181741;23;20514;-81
2021/03/15 01:56:32;;;;;;;13.20;5.40;;;5.10;98.30;;;;;;4152465;28;20495;-79
2021/03/15 01:58:34;;;;;;;12.20;4.10;;;5.10;98.30;;;;;;4162905;28;20501;-78
2021/03/15 02:00:37;;;;;;;10.70;3.73;;;5.10;98.30;;;;;;4155327;28;20495;-79
2021/03/15 02:02:41;;;;;;;8.70;3.60;;;5.20;98.30;;;;;;4161682;28;20571;-79
2021/03/15 02:04:44;;;;;;;8.30;4.17;;;5.20;98.30;;;;;;4140005;28;21227;-78
2021/03/15 02:07:01;;;;;;;10.53;4.00;;;5.20;98.30;;;;;;4140874;28;21040;-79
2021/03/15 02:09:04;;;;;;;12.50;4.27;;;5.20;98.30;;;;;;4144682;28;20485;-78
2021/03/15 02:11:15;;;;;;;10.87;4.00;;;5.20;98.30;;;;;;4143094;28;21002;-78
2021/03/15 02:13:46;;;;;;;10.70;4.53;;;5.10;98.30;;;;;;4141243;28;20525;-78
2021/03/15 02:16:02;;;;;;;9.23;4.00;;;5.20;98.30;;;;;;4142331;28;21202;-78
2021/03/15 02:18:24;;;;;;;12.03;4.57;;;5.10;98.30;;;;;;4138078;28;20487;-78
2021/03/15 02:21:09;;;;;;;16.53;4.40;;;5.20;98.30;;;;;;4139437;28;20519;-79
2021/03/15 02:23:15;;;;;;;10.95;3.80;;;5.10;98.30;;;;;;4139441;28;20502;-79
2021/03/15 02:25:52;;;;;;;19.00;5.47;;;5.10;98.30;;;;;;4136290;28;20237;-79
2021/03/15 02:28:16;;;;;;;8.63;4.83;;;5.10;98.30;;;;;;4137111;28;20490;-79
2021/03/15 02:30:51;;;;;;;13.73;4.40;;;5.20;98.30;;;;;;4137769;28;21094;-79
2021/03/15 02:33:44;;;;;;;14.73;4.50;;;5.20;98.30;;;;;;4134229;28;20852;-79
2021/03/15 02:35:49;;;;;;;14.47;5.27;;;5.20;98.30;;;;;;4137605;28;20572;-79
2021/03/15 02:37:55;;;;;;;9.70;5.00;;;5.10;98.30;;;;;;4136228;28;20478;-79
2021/03/15 02:40:03;;;;;;;11.53;4.77;;;5.10;98.30;;;;;;4138381;28;20525;-80
2021/03/15 02:42:10;;;;;;;11.88;4.88;;;5.00;98.30;;;;;;4136658;28;20488;-80
2021/03/15 02:44:13;;;;;;;12.90;4.80;;;5.00;98.30;;;;;;4143568;28;20318;-81
2021/03/15 02:46:17;;;;;;;10.53;4.57;;;5.00;98.30;;;;;;4139250;28;20718;-80
2021/03/15 02:48:21;;;;;;;14.53;5.17;;;5.10;98.30;;;;;;4139227;28;20909;-82
2021/03/15 02:50:25;;;;;;;13.63;5.50;;;5.10;98.30;;;;;;4140250;28;20493;-80
2021/03/15 02:52:30;;;;;;;14.47;5.00;;;5.00;98.30;;;;;;4141481;28;20585;-80
2021/03/15 02:54:34;;;;;;;9.23;4.37;;;5.10;98.30;;;;;;4142715;28;20494;-79
2021/03/15 02:56:46;;;;;;;12.30;4.70;;;5.10;98.30;;;;;;4136229;28;20492;-78
2021/03/15 02:58:51;;;;;;;11.33;4.67;;;5.10;98.30;;;;;;4139389;28;20490;-79
2021/03/15 03:00:53;;;;;;;18.30;5.43;;;5.00;98.30;;;;;;4138965;28;20579;-79
2021/03/15 03:02:57;;;;;;;11.80;5.20;;;5.00;98.30;;;;;;4141591;28;20503;-78
2021/03/15 03:05:01;;;;;;;9.30;4.87;;;5.10;98.30;;;;;;4142590;28;21033;-79
2021/03/15 03:07:05;;;;;;;12.93;5.00;;;5.10;98.30;;;;;;4145064;28;21005;-78
2021/03/15 03:09:12;;;;;;;11.80;4.80;;;5.10;98.30;;;;;;4140755;28;20579;-80
2021/03/15 03:11:15;;;;;;;9.90;4.40;;;5.10;98.30;;;;;;4146493;28;20467;-80
2021/03/15 03:13:18;;;;;;;14.10;4.73;;;5.10;98.30;;;;;;4142213;28;20490;-78
2021/03/15 03:15:22;;;;;;;9.27;3.90;;;5.10;98.30;;;;;;4136167;28;21080;-78
2021/03/15 03:17:25;;;;;;;15.03;5.80;;;5.10;98.30;;;;;;4144448;28;21023;-78
2021/03/15 03:19:29;;;;;;;11.03;5.93;;;5.10;98.30;;;;;;4141975;28;20548;-80
2021/03/15 03:21:31;;;;;;;19.07;7.13;;;5.10;98.30;;;;;;4142022;28;20519;-80
2021/03/15 03:23:36;;;;;;;31.40;12.37;;;5.10;98.30;;;;;;4141091;28;21031;-78
2021/03/15 03:25:41;;;;;;;18.73;6.83;;;5.10;98.30;;;;;;4138891;28;20495;-78
2021/03/15 03:27:46;;;;;;;14.57;5.37;;;5.10;98.30;;;;;;4136086;28;20491;-79
2021/03/15 03:29:49;;;;;;;10.47;4.37;;;5.10;98.30;;;;;;4139855;28;20493;-78
2021/03/15 03:31:53;;;;;;;9.33;4.70;;;5.20;98.30;;;;;;4139895;28;21022;-78
2021/03/15 03:33:55;;;;;;;15.40;6.10;;;5.20;98.30;;;;;;4138788;28;20584;-79
2021/03/15 03:35:57;;;;;;;15.40;5.13;;;5.10;98.30;;;;;;4141689;28;20585;-79
2021/03/15 03:38:13;;;;;;;14.00;5.10;;;5.10;98.30;;;;;;4140578;28;20500;-79
2021/03/15 03:40:18;;;;;;;14.67;6.20;;;5.10;98.30;;;;;;4133648;28;20534;-79
2021/03/15 03:42:21;;;;;;;13.53;7.13;;;5.20;98.30;;;;;;4139261;28;20493;-79
2021/03/15 03:44:23;;;;;;;8.30;4.40;;;5.20;98.30;;;;;;4141329;28;20514;-80
2021/03/15 03:46:25;;;;;;;17.83;6.67;;;5.10;98.30;;;;;;4139161;28;21039;-78
2021/03/15 03:48:28;;;;;;;13.53;6.47;;;5.00;98.30;;;;;;4146194;28;20495;-79
2021/03/15 03:50:33;;;;;;;17.50;5.60;;;5.00;98.30;;;;;;4142937;28;20582;-79
2021/03/15 03:52:37;;;;;;;10.93;4.70;;;5.00;98.30;;;;;;4143710;28;21324;-79
2021/03/15 03:54:43;;;;;;;14.00;5.57;;;5.00;98.30;;;;;;4140556;28;20491;-78
2021/03/15 03:56:50;;;;;;;13.77;6.03;;;5.00;98.30;;;;;;4146275;28;21016;-79
2021/03/15 03:58:55;;;;;;;8.57;4.90;;;5.00;98.30;;;;;;4131937;28;20578;-79
2021/03/15 04:00:58;;;;;;;13.35;5.50;;;5.00;98.30;;;;;;4132647;28;21013;-78
2021/03/15 04:03:05;;;;;;;8.60;4.80;;;5.00;98.30;;;;;;4144426;28;20231;-78
2021/03/15 04:05:09;;;;;;;16.20;5.43;;;5.00;98.30;;;;;;4141225;28;20502;-79
2021/03/15 04:07:12;;;;;;;13.60;7.43;;;5.10;98.30;;;;;;4141173;28;20499;-79
2021/03/15 04:09:16;;;;;;;15.23;5.43;;;5.10;98.30;;;;;;4141980;28;20594;-79
2021/03/15 04:11:19;;;;;;;13.73;6.50;;;5.10;98.30;;;;;;4145658;28;20497;-79
2021/03/15 04:13:24;;;;;;;9.60;5.17;;;5.10;98.30;;;;;;4140749;28;20489;-79
2021/03/15 04:15:27;;;;;;;11.23;5.90;;;5.00;98.30;;;;;;4141539;28;20570;-79
2021/03/15 04:17:35;;;;;;;6.97;4.97;;;5.00;98.30;;;;;;4141681;28;20491;-79
2021/03/15 04:19:42;;;;;;;13.13;6.43;;;5.00;98.30;;;;;;4142961;28;21015;-79
2021/03/15 04:21:49;;;;;;;10.67;6.00;;;5.00;98.30;;;;;;4142674;28;20590;-80
2021/03/15 04:23:52;;;;;;;15.80;6.77;;;5.00;98.30;;;;;;4142412;28;20494;-79
2021/03/15 04:25:55;;;;;;;11.83;5.77;;;4.90;98.30;;;;;;4142453;28;20523;-79
2021/03/15 04:27:59;;;;;;;7.35;4.95;;;4.90;98.30;;;;;;4142035;28;20878;-79
2021/03/15 04:30:02;;;;;;;12.17;4.80;;;5.00;98.30;;;;;;4143329;28;20232;-79
2021/03/15 04:32:06;;;;;;;10.53;5.13;;;5.00;98.30;;;;;;4140781;28;20493;-79
2021/03/15 04:34:09;;;;;;;12.43;6.20;;;5.00;98.30;;;;;;4141812;28;20542;-79
2021/03/15 04:36:15;;;;;;;7.63;4.87;;;4.90;98.30;;;;;;4137348;28;20497;-79
2021/03/15 04:38:17;;;;;;;8.10;4.97;;;4.90;98.30;;;;;;4141042;28;20960;-79
2021/03/15 04:40:24;;;;;;;9.37;5.07;;;4.90;98.30;;;;;;4146265;28;20488;-79
2021/03/15 04:42:26;;;;;;;7.00;4.47;;;5.00;98.30;;;;;;4140887;28;20457;-79
2021/03/15 04:44:29;;;;;;;11.17;6.90;;;5.00;98.30;;;;;;4147405;28;20580;-79
2021/03/15 04:46:31;;;;;;;5.90;4.37;;;5.00;98.30;;;;;;4138866;28;20588;-79
2021/03/15 04:48:37;;;;;;;11.10;5.00;;;4.90;98.30;;;;;;4144800;28;20466;-79
2021/03/15 04:50:39;;;;;;;6.78;4.90;;;4.90;98.30;;;;;;4147076;28;20937;-79
2021/03/15 04:52:43;;;;;;;8.70;5.90;;;4.90;98.30;;;;;;4143468;28;20263;-79
2021/03/15 04:54:45;;;;;;;7.40;3.88;;;4.90;98.30;;;;;;4146381;28;20498;-79
2021/03/15 04:56:50;;;;;;;10.00;4.17;;;4.80;98.30;;;;;;4141969;28;20255;-79
2021/03/15 04:58:59;;;;;;;12.25;5.85;;;4.90;98.30;;;;;;4145579;28;20549;-79
2021/03/15 05:01:03;;;;;;;7.30;4.23;;;4.90;98.30;;;;;;4145069;28;20286;-79
2021/03/15 05:03:08;;;;;;;9.37;4.77;;;4.90;98.30;;;;;;4141939;28;20486;-79
2021/03/15 05:05:14;;;;;;;11.23;5.35;;;4.80;98.30;;;;;;4142833;28;20493;-79
2021/03/15 05:07:19;;;;;;;10.00;4.50;;;4.80;98.30;;;;;;4140642;28;20231;-79
2021/03/15 05:09:27;;;;;;;8.38;4.82;;;4.80;98.30;;;;;;4139930;28;20729;-79
2021/03/15 05:11:32;;;;;;;6.32;4.35;;;4.80;98.30;;;;;;4137616;28;20290;-80
2021/03/15 05:13:35;;;;;;;5.85;4.65;;;4.80;98.30;;;;;;4144733;28;20316;-81
2021/03/15 05:15:38;;;;;;;7.97;5.43;;;4.70;98.30;;;;;;4138714;28;20883;-79
2021/03/15 05:17:41;;;;;;;11.85;5.53;;;4.70;98.30;;;;;;4138995;28;20227;-79
2021/03/15 05:19:45;;;;;;;7.40;4.70;;;4.70;98.30;;;;;;4139720;28;20230;-79
2021/03/15 05:21:48;;;;;;;12.10;6.25;;;4.70;98.30;;;;;;4143421;28;21046;-79
2021/03/15 05:23:55;;;;;;;12.15;5.55;;;4.70;98.30;;;;;;4137931;28;20239;-78
2021/03/15 05:25:57;;;;;;;12.00;6.50;;;4.70;98.30;;;;;;4138440;28;20232;-78
2021/03/15 05:28:00;;;;;;;7.78;4.45;;;4.70;98.30;;;;;;4141090;28;20231;-78
2021/03/15 05:30:07;;;;;;;11.57;5.80;;;4.70;98.30;;;;;;4141901;28;20273;-78
2021/03/15 05:32:12;;;;;;;11.47;6.50;;;4.70;98.30;;;;;;4139542;28;20626;-78
2021/03/15 05:34:21;;;;;;;15.43;6.13;;;4.70;98.30;;;;;;4140497;28;20495;-79
2021/03/15 05:36:24;;;;;;;10.00;5.60;;;4.80;98.30;;;;;;4135998;28;20229;-79
2021/03/15 05:38:27;;;;;;;9.55;5.65;;;4.80;98.30;;;;;;4142082;28;20663;-79
2021/03/15 05:40:31;;;;;;;11.83;5.70;;;4.70;98.30;;;;;;4140898;28;20243;-79
2021/03/15 05:42:48;;;;;;;8.10;6.00;;;4.70;98.30;;;;;;4140214;28;20497;-79
2021/03/15 05:45:10;;;;;;;9.60;5.70;;;4.70;98.30;;;;;;4139906;28;20486;-79
2021/03/15 05:47:48;;;;;;;8.75;5.13;;;4.70;98.30;;;;;;4142983;28;20506;-79
2021/03/15 05:50:27;;;;;;;12.18;6.25;;;4.70;98.30;;;;;;4138242;28;20215;-80
2021/03/15 05:52:45;;;;;;;9.80;5.30;;;4.70;98.30;;;;;;4139915;28;20232;-80
2021/03/15 05:55:21;;;;;;;9.93;5.47;;;4.70;98.30;;;;;;4139811;28;20842;-80
2021/03/15 05:57:55;;;;;;;7.63;5.07;;;4.70;98.30;;;;;;4144121;28;20231;-79
2021/03/15 06:00:22;;;;;;;11.23;5.85;;;4.70;98.30;;;;;;4138495;28;20258;-79
2021/03/15 06:03:00;;;;;;;12.35;5.82;;;4.70;98.30;;;;;;4140991;28;20237;-80
2021/03/15 06:05:20;;;;;;;8.68;5.40;;;4.80;98.30;;;;;;4140746;28;20227;-79
2021/03/15 06:07:27;;;;;;;9.43;5.32;;;4.80;98.30;;;;;;4139439;28;20309;-79
2021/03/15 06:09:30;;;;;;;10.25;5.82;;;4.80;98.30;;;;;;4139446;28;20227;-79
2021/03/15 06:11:43;;;;;;;10.40;6.30;;;4.80;98.30;;;;;;4136304;28;20235;-79
2021/03/15 06:13:46;;;;;;;8.43;5.40;;;4.80;98.30;;;;;;4143735;28;20489;-79
2021/03/15 06:15:48;;;;;;;9.03;4.73;;;4.90;98.30;;;;;;4140523;28;21012;-79
2021/03/15 06:17:51;;;;;;;12.38;5.85;;;4.90;98.30;;;;;;4142418;28;21287;-80
2021/03/15 06:19:53;;;;;;;8.27;4.73;;;4.90;98.30;;;;;;4141409;28;20307;-79
2021/03/15 06:21:58;;;;;;;12.80;5.10;;;4.90;98.30;;;;;;4142785;28;20617;-79
2021/03/15 06:24:00;;;;;;;12.73;5.23;;;4.90;98.30;;;;;;4138726;28;20882;-79
2021/03/15 06:26:03;;;;;;;10.07;5.90;;;4.90;98.30;;;;;;4143228;28;21056;-79
2021/03/15 06:28:06;;;;;;;8.67;5.10;;;4.90;98.30;;;;;;4138223;28;20493;-79
2021/03/15 06:30:09;;;;;;;14.90;7.83;;;4.90;98.30;;;;;;4142906;28;20522;-79
2021/03/15 06:32:12;;;;;;;9.73;5.07;;;4.90;98.30;;;;;;4140035;28;20488;-80
2021/03/15 06:34:15;;;;;;;14.03;6.10;;;4.90;98.30;;;;;;4140287;28;21029;-80
2021/03/15 06:36:18;;;;;;;9.27;4.75;;;4.90;98.30;;;;;;4131142;28;21269;-79
2021/03/15 06:38:21;;;;;;;14.00;6.97;;;4.90;98.30;;;;;;4136632;28;21035;-79
2021/03/15 06:40:33;;;;;;;12.97;6.37;;;4.90;98.30;;;;;;4139306;28;20497;-79
2021/03/15 06:42:35;;;;;;;10.67;5.57;;;4.90;98.30;;;;;;4140958;28;20533;-80
2021/03/15 06:44:39;;;;;;;12.93;7.40;;;4.90;98.30;;;;;;4141310;28;20494;-80
2021/03/15 06:46:42;;;;;;;20.33;7.53;;;4.90;98.30;;;;;;4132181;28;20547;-79
2021/03/15 06:48:44;;;;;;;17.00;6.53;;;4.90;98.30;;;;;;4139486;28;20576;-79
2021/03/15 06:50:47;;;;;;;9.83;5.53;;;4.90;98.30;;;;;;4138809;28;20489;-79
2021/03/15 06:53:00;;;;;;;11.30;6.63;;;4.90;98.30;;;;;;4142930;28;20878;-79
2021/03/15 06:55:05;;;;;;;13.70;7.30;;;4.90;98.30;;;;;;4142184;28;20545;-79
2021/03/15 06:57:17;;;;;;;14.30;6.03;;;4.90;98.30;;;;;;4143210;28;20515;-79
2021/03/15 06:59:19;;;;;;;12.00;5.67;;;4.90;98.30;;;;;;4142910;28;20494;-79
2021/03/15 07:01:23;;;;;;;9.33;4.97;;;4.80;98.30;;;;;;4132876;28;20485;-80
2021/03/15 07:03:25;;;;;;;12.57;6.57;;;4.80;98.30;;;;;;4139750;28;20492;-79
2021/03/15 07:05:29;;;;;;;16.33;7.43;;;4.90;98.30;;;;;;4141559;28;20977;-80
2021/03/15 07:07:30;;;;;;;14.10;6.50;;;4.90;98.30;;;;;;4135598;28;20986;-79
2021/03/15 07:09:33;;;;;;;14.97;6.90;;;4.90;98.30;;;;;;4137304;28;20479;-79
2021/03/15 07:11:36;;;;;;;14.23;6.80;;;4.90;98.30;;;;;;4140350;28;20502;-80
2021/03/15 07:13:42;;;;;;;18.13;5.70;;;4.80;98.30;;;;;;4140123;28;20508;-80
2021/03/15 07:15:45;;;;;;;13.80;6.85;;;4.90;98.30;;;;;;4141176;28;20495;-79
2021/03/15 07:17:48;;;;;;;14.77;6.75;;;4.90;98.30;;;;;;4139118;28;20242;-80
2021/03/15 07:19:51;;;;;;;15.73;7.23;;;4.90;98.30;;;;;;4135912;28;20287;-80
2021/03/15 07:21:53;;;;;;;9.13;5.80;;;4.90;98.30;;;;;;4140516;28;20468;-80
2021/03/15 07:23:58;;;;;;;11.97;5.97;;;5.00;98.30;;;;;;4144407;28;20239;-79
2021/03/15 07:26:10;;;;;;;10.30;4.87;;;5.00;98.30;;;;;;4134917;28;20497;-79
2021/03/15 07:28:12;;;;;;;17.13;7.17;;;5.10;98.30;;;;;;4144396;28;20590;-80
2021/03/15 07:30:35;;;;;;;13.13;6.10;;;5.00;98.30;;;;;;4147108;28;20512;-79
2021/03/15 07:32:40;;;;;;;13.80;7.10;;;5.00;98.30;;;;;;4147169;28;20511;-80
2021/03/15 07:34:43;;;;;;;13.20;6.10;;;5.00;98.30;;;;;;4144265;28;20499;-80
2021/03/15 07:36:51;;;;;;;9.13;5.67;;;5.00;98.30;;;;;;4140296;28;20499;-80
2021/03/15 07:38:53;;;;;;;6.80;3.93;;;4.90;98.30;;;;;;4142756;28;20484;-80
2021/03/15 07:41:16;;;;;;;9.97;4.77;;;4.90;98.30;;;;;;4139103;28;20471;-80
2021/03/15 07:43:27;;;;;;;10.97;4.97;;;4.90;98.30;;;;;;4131495;28;20602;-80
2021/03/15 07:45:31;;;;;;;12.93;6.28;;;5.00;98.30;;;;;;4141684;28;20564;-81
2021/03/15 07:47:38;;;;;;;10.67;5.50;;;5.00;98.30;;;;;;4141751;28;20244;-80
2021/03/15 07:49:42;;;;;;;10.33;4.43;;;5.00;98.30;;;;;;4140884;28;20568;-80
2021/03/15 07:51:50;;;;;;;8.53;4.10;;;5.00;98.30;;;;;;4141075;28;20469;-80
2021/03/15 08:01:06;;;;;;;8.80;5.03;;;5.10;98.30;;;;;;4110307;28;20590;-80
2021/03/15 08:03:32;;;;;;;13.27;6.77;;;5.00;98.30;;;;;;4102469;28;20492;-80
2021/03/15 08:06:08;;;;;;;10.40;5.30;;;5.00;98.30;;;;;;4112566;28;21302;-80
2021/03/15 08:08:23;;;;;;;7.20;4.83;;;5.00;98.30;;;;;;4106495;28;20473;-80
2021/03/15 08:10:32;;;;;;;10.10;5.13;;;5.10;98.30;;;;;;4095776;28;20955;-80
2021/03/15 08:12:35;;;;;;;14.73;5.50;;;5.10;98.30;;;;;;4103708;28;20593;-80
2021/03/15 08:14:46;;;;;;;12.23;4.87;;;5.10;98.30;;;;;;4114588;28;20492;-80
2021/03/15 08:16:49;;;;;;;12.73;5.33;;;5.20;98.30;;;;;;4108145;28;20507;-81
2021/03/15 08:18:52;;;;;;;5.83;3.83;;;5.20;98.30;;;;;;4109193;28;20498;-81
2021/03/15 08:21:00;;;;;;;11.20;4.50;;;5.30;98.30;;;;;;4107998;28;21091;-81
2021/03/15 08:23:04;;;;;;;8.53;4.10;;;5.40;98.30;;;;;;4109654;28;20485;-81
2021/03/15 08:25:10;;;;;;;7.23;4.43;;;5.50;98.30;;;;;;4103773;28;20901;-81
2021/03/15 08:27:15;;;;;;;12.67;4.30;;;5.50;98.30;;;;;;4111265;28;20537;-81
2021/03/15 08:29:18;;;;;;;18.70;6.20;;;5.60;98.30;;;;;;4108055;28;20528;-81
2021/03/15 08:31:24;;;;;;;25.87;7.70;;;5.70;98.30;;;;;;4106501;28;20550;-81
2021/03/15 08:33:27;;;;;;;14.87;6.00;;;5.70;98.30;;;;;;4107873;28;21352;-81
2021/03/15 08:35:30;;;;;;;8.37;5.00;;;5.80;98.30;;;;;;4110630;28;20496;-81
2021/03/15 08:37:58;;;;;;;16.43;4.67;;;5.80;98.30;;;;;;4107852;28;21045;-80
2021/03/15 08:40:00;;;;;;;11.47;5.57;;;5.80;98.30;;;;;;4111145;28;20505;-81
2021/03/15 08:42:28;;;;;;;19.80;5.80;;;5.80;98.30;;;;;;4107926;28;21293;-81
2021/03/15 08:44:48;;;;;;;12.83;4.73;;;5.80;98.30;;;;;;4109513;28;20511;-81
2021/03/15 08:46:51;;;;;;;12.00;5.20;;;5.80;98.30;;;;;;4108270;28;20583;-80
2021/03/15 08:49:00;;;;;;;7.33;4.80;;;5.80;98.30;;;;;;4108830;28;20503;-81
2021/03/15 08:51:04;;;;;;;13.07;4.00;;;5.80;98.30;;;;;;4111766;28;20499;-81
2021/03/15 08:53:06;;;;;;;9.77;4.33;;;5.90;98.30;;;;;;4105538;28;20493;-81
2021/03/15 08:55:08;;;;;;;8.73;4.43;;;5.90;98.30;;;;;;4107272;28;21448;-81
2021/03/15 08:57:30;;;;;;;9.07;3.23;;;5.90;98.30;;;;;;4108091;28;20470;-80
2021/03/15 08:59:33;;;;;;;9.03;4.40;;;5.80;98.30;;;;;;4111704;28;20470;-81
2021/03/15 09:01:57;;;;;;;15.03;4.40;;;5.90;98.30;;;;;;4105655;28;20577;-81
2021/03/15 09:04:01;;;;;;;14.67;3.90;;;5.90;98.30;;;;;;4101965;28;20514;-81
2021/03/15 09:06:03;;;;;;;16.60;4.43;;;6.00;98.30;;;;;;4111384;28;20578;-81
2021/03/15 09:08:05;;;;;;;11.00;3.70;;;6.00;98.30;;;;;;4112904;28;20525;-81
2021/03/15 09:10:35;;;;;;;11.90;4.80;;;6.10;98.30;;;;;;4106623;28;20568;-81
2021/03/15 09:12:39;;;;;;;10.97;4.60;;;6.20;98.30;;;;;;4104668;28;20590;-81
2021/03/15 09:14:41;;;;;;;14.90;4.83;;;6.30;98.30;;;;;;4106608;28;20591;-81
2021/03/15 09:16:44;;;;;;;16.47;6.53;;;6.40;98.30;;;;;;4109786;28;20567;-81
2021/03/15 09:18:54;;;;;;;16.43;5.70;;;6.50;98.30;;;;;;4106587;28;21544;-81
2021/03/15 09:20:56;;;;;;;12.97;3.60;;;6.60;98.30;;;;;;4101204;28;20499;-81
2021/03/15 09:23:30;;;;;;;12.10;4.90;;;6.60;98.30;;;;;;4112215;28;20519;-81
2021/03/15 09:25:32;;;;;;;14.63;4.13;;;6.50;98.30;;;;;;4111111;28;20561;-81
2021/03/15 09:27:37;;;;;;;13.53;4.93;;;6.50;98.30;;;;;;4108122;28;21192;-80
2021/03/15 09:29:40;;;;;;;16.37;4.60;;;6.60;98.30;;;;;;4112486;28;20463;-81
2021/03/15 09:31:58;;;;;;;9.73;3.73;;;6.60;98.30;;;;;;4111920;28;21401;-81
2021/03/15 09:34:07;;;;;;;9.43;4.00;;;6.70;98.30;;;;;;4113233;28;20478;-80
2021/03/15 09:36:09;;;;;;;21.20;4.47;;;6.70;98.30;;;;;;4112015;28;20499;-81
2021/03/15 09:38:12;;;;;;;14.97;5.90;;;6.70;98.30;;;;;;4113719;28;21011;-81
2021/03/15 09:40:16;;;;;;;10.00;4.77;;;6.70;98.30;;;;;;4113677;28;20496;-81
2021/03/15 09:42:19;;;;;;;18.10;4.33;;;6.70;98.30;;;;;;4111291;28;20479;-81
2021/03/15 09:44:25;;;;;;;14.80;4.80;;;6.60;98.30;;;;;;4114467;28;20474;-81
2021/03/15 09:46:29;;;;;;;13.97;4.40;;;6.50;98.30;;;;;;4112973;28;20469;-81
2021/03/15 09:48:32;;;;;;;15.63;4.10;;;6.50;98.30;;;;;;4112600;28;20857;-81
2021/03/15 09:50:36;;;;;;;13.50;5.20;;;6.50;98.30;;;;;;4110655;28;20491;-81
2021/03/15 09:52:38;;;;;;;11.77;4.30;;;6.50;98.30;;;;;;4113066;28;20529;-81
2021/03/15 09:54:41;;;;;;;29.83;5.20;;;6.50;98.30;;;;;;4114289;28;20468;-81
2021/03/15 09:56:44;;;;;;;11.23;4.53;;;6.50;98.30;;;;;;4113760;28;20816;-81
2021/03/15 09:58:46;;;;;;;19.30;4.87;;;6.50;98.30;;;;;;4113851;28;21064;-81
2021/03/15 10:00:51;;;;;;;15.60;4.10;;;6.50;98.30;;;;;;4111386;28;21003;-81
2021/03/15 10:02:54;;;;;;;19.83;4.90;;;6.50;98.30;;;;;;4112571;28;20473;-81
2021/03/15 10:04:56;;;;;;;20.33;4.40;;;6.50;98.30;;;;;;4111787;28;20498;-82
2021/03/15 10:06:59;;;;;;;23.70;5.00;;;6.50;98.30;;;;;;4110654;28;20493;-81
2021/03/15 10:09:05;;;;;;;15.40;4.60;;;6.50;98.30;;;;;;4112853;28;20458;-81
2021/03/15 10:11:14;;;;;;;19.67;5.13;;;6.60;98.30;;;;;;4112549;28;20492;-81
2021/03/15 10:13:26;;;;;;;17.80;5.03;;;6.70;98.30;;;;;;4111409;28;20501;-81
2021/03/15 10:15:28;;;;;;;19.07;4.70;;;6.70;98.30;;;;;;4113479;28;20530;-81
2021/03/15 10:17:30;;;;;;;14.67;4.83;;;6.70;98.30;;;;;;4112792;28;20473;-81
2021/03/15 10:19:34;;;;;;;16.77;6.17;;;6.70;98.30;;;;;;4112960;28;20502;-81
2021/03/15 10:21:37;;;;;;;18.30;4.87;;;6.70;98.30;;;;;;4111515;28;20525;-81
2021/03/15 10:23:41;;;;;;;14.80;4.37;;;6.70;98.30;;;;;;4111798;28;20492;-80
2021/03/15 10:25:55;;;;;;;33.97;8.67;;;6.80;98.30;;;;;;4111947;28;20507;-80
2021/03/15 10:27:58;;;;;;;21.80;9.47;;;6.80;98.30;;;;;;4110123;28;21304;-80
2021/03/15 10:30:06;;;;;;;21.40;5.10;;;6.80;98.30;;;;;;4104909;28;20494;-79
2021/03/15 10:32:09;;;;;;;24.23;6.03;;;6.90;98.30;;;;;;4106122;28;20467;-79
2021/03/15 10:34:12;;;;;;;13.97;5.03;;;7.20;98.30;;;;;;4104631;28;21828;-79
2021/03/15 10:36:18;;;;;;;17.97;6.20;;;7.50;98.30;;;;;;4111790;28;20501;-79
2021/03/15 10:38:21;;;;;;;15.53;4.27;;;7.70;98.30;;;;;;4102069;28;20564;-79
2021/03/15 10:40:24;;;;;;;22.80;5.13;;;7.60;98.30;;;;;;4110529;28;20494;-81
2021/03/15 10:42:28;;;;;;;14.93;5.03;;;7.70;98.30;;;;;;4109672;28;20534;-79
2021/03/15 10:44:31;;;;;;;18.73;4.80;;;7.60;98.30;;;;;;4108957;28;20494;-79
2021/03/15 10:46:45;;;;;;;9.23;3.70;;;7.60;98.30;;;;;;4111331;28;20519;-79
2021/03/15 10:48:48;;;;;;;18.27;5.60;;;7.40;98.30;;;;;;4109592;28;21056;-79
2021/03/15 10:50:58;;;;;;;10.97;5.10;;;7.30;98.30;;;;;;4102922;28;21032;-79
2021/03/15 10:53:13;;;;;;;10.33;4.13;;;7.10;98.30;;;;;;4105787;28;20595;-79
2021/03/15 10:55:16;;;;;;;19.37;4.87;;;7.00;98.30;;;;;;4105575;28;20491;-79
2021/03/15 10:57:19;;;;;;;17.80;4.03;;;6.90;98.30;;;;;;4112964;28;20539;-79
2021/03/15 10:59:34;;;;;;;23.40;4.77;;;7.10;98.30;;;;;;4112667;28;20530;-79
2021/03/15 11:01:37;;;;;;;9.67;3.67;;;7.10;98.30;;;;;;4107846;28;21612;-80
2021/03/15 11:03:40;;;;;;;13.93;3.40;;;7.20;98.30;;;;;;4108540;28;20464;-79
2021/03/15 11:05:42;;;;;;;7.90;3.60;;;7.20;98.30;;;;;;4111014;28;20527;-79
2021/03/15 11:07:46;;;;;;;22.87;4.90;;;7.20;98.30;;;;;;4108446;28;20512;-79